createdAt,value
2018-04-30T00:01:23.830Z,7.33
2018-04-30T00:03:51.429Z,8.63
2018-04-30T00:06:19.057Z,8.30
2018-04-30T00:08:46.598Z,6.77
2018-04-30T00:11:15.092Z,6.57
2018-04-30T00:13:42.631Z,5.30
2018-04-30T00:16:10.210Z,5.47
2018-04-30T00:18:37.745Z,4.50
2018-04-30T00:21:05.386Z,5.87
2018-04-30T00:23:32.990Z,5.63
2018-04-30T00:26:00.546Z,7.23
2018-04-30T00:28:28.088Z,9.80
2018-04-30T00:30:55.734Z,8.07
2018-04-30T00:33:23.325Z,6.83
2018-04-30T00:35:50.864Z,6.57
2018-04-30T00:38:18.416Z,6.03
2018-04-30T00:40:46.050Z,5.30
2018-04-30T00:43:14.450Z,6.00
2018-04-30T00:45:42.054Z,6.50
2018-04-30T00:48:09.654Z,5.63
2018-04-30T00:50:37.262Z,5.77
2018-04-30T00:53:04.774Z,6.30
2018-04-30T00:55:32.415Z,5.13
2018-04-30T00:57:59.993Z,5.70
2018-04-30T01:00:27.533Z,5.50
2018-04-30T01:02:55.178Z,6.67
2018-04-30T01:05:22.713Z,6.20
2018-04-30T01:07:50.314Z,6.03
2018-04-30T01:10:18.654Z,6.83
2018-04-30T01:12:46.266Z,7.23
2018-04-30T01:15:13.858Z,6.53
2018-04-30T01:17:41.462Z,7.00
2018-04-30T01:20:09.158Z,5.77
2018-04-30T01:22:36.694Z,5.63
2018-04-30T01:25:04.307Z,6.57
2018-04-30T01:27:31.907Z,5.70
2018-04-30T01:29:59.452Z,6.03
2018-04-30T01:32:27.042Z,6.00
2018-04-30T01:34:56.458Z,8.53
2018-04-30T01:37:24.058Z,7.13
2018-04-30T01:39:51.653Z,6.90
2018-04-30T01:42:19.303Z,7.70
2018-04-30T01:44:46.842Z,6.90
2018-04-30T01:47:14.444Z,8.73
2018-04-30T01:49:42.037Z,13.20
2018-04-30T01:52:09.663Z,14.63
2018-04-30T01:54:38.266Z,11.33
2018-04-30T01:57:05.931Z,12.00
2018-04-30T01:59:33.547Z,11.90
2018-04-30T02:02:01.152Z,11.63
2018-04-30T02:04:28.763Z,10.33
2018-04-30T02:06:56.317Z,12.57
2018-04-30T02:09:23.926Z,11.03
2018-04-30T02:11:51.518Z,11.60
2018-04-30T02:14:19.130Z,10.97
2018-04-30T02:16:46.806Z,12.30
2018-04-30T02:19:14.354Z,11.73
2018-04-30T02:21:41.956Z,11.90
2018-04-30T02:24:09.501Z,12.87
2018-04-30T02:26:37.114Z,12.03
2018-04-30T02:29:04.655Z,9.80
2018-04-30T02:31:32.323Z,10.03
2018-04-30T02:34:00.187Z,10.13
2018-04-30T02:36:27.802Z,7.50
2018-04-30T02:38:55.358Z,7.70
2018-04-30T02:41:22.969Z,8.30
2018-04-30T02:43:50.540Z,7.03
2018-04-30T02:46:18.130Z,7.67
2018-04-30T02:48:45.674Z,7.43
2018-04-30T02:51:13.215Z,8.10
2018-04-30T02:53:40.874Z,8.73
2018-04-30T02:56:08.419Z,9.13
2018-04-30T02:58:36.004Z,9.20
2018-04-30T03:01:03.698Z,9.50
2018-04-30T03:03:31.312Z,9.47
2018-04-30T03:05:59.778Z,9.27
2018-04-30T03:08:27.483Z,9.87
2018-04-30T03:10:55.091Z,10.23
2018-04-30T03:13:22.702Z,10.27
2018-04-30T03:15:50.303Z,9.13
2018-04-30T03:18:17.848Z,9.80
2018-04-30T03:20:45.459Z,9.37
2018-04-30T03:23:13.110Z,9.70
2018-04-30T03:25:40.717Z,9.03
2018-04-30T03:28:09.204Z,9.23
2018-04-30T03:30:36.834Z,8.93
2018-04-30T03:33:05.204Z,9.50
2018-04-30T03:35:32.754Z,10.73
2018-04-30T03:38:00.302Z,10.37
2018-04-30T03:40:27.962Z,10.70
2018-04-30T03:42:55.571Z,9.50
2018-04-30T03:45:23.153Z,9.50
2018-04-30T03:47:52.754Z,9.07
2018-04-30T03:50:20.366Z,10.53
2018-04-30T03:52:47.911Z,10.77
2018-04-30T03:55:15.590Z,10.70
2018-04-30T03:57:43.198Z,11.50
2018-04-30T04:00:22.398Z,12.00
2018-04-30T04:03:01.658Z,12.63
2018-04-30T04:05:41.010Z,12.23
2018-04-30T04:08:08.618Z,12.00
2018-04-30T04:10:36.166Z,9.37
2018-04-30T04:13:03.761Z,8.97
2018-04-30T04:15:32.394Z,10.17
2018-04-30T04:18:00.008Z,9.90
2018-04-30T04:20:27.626Z,10.30
2018-04-30T04:22:55.266Z,9.90
2018-04-30T04:25:22.877Z,10.70
2018-04-30T04:27:50.426Z,10.47
2018-04-30T04:30:18.018Z,8.93
2018-04-30T04:32:45.696Z,8.33
2018-04-30T04:35:13.237Z,9.30
2018-04-30T04:37:40.826Z,10.90
2018-04-30T04:40:08.373Z,8.90
2018-04-30T04:42:35.987Z,9.10
2018-04-30T04:45:03.530Z,9.90
2018-04-30T04:47:31.205Z,9.00
2018-04-30T04:49:58.764Z,8.57
2018-04-30T04:52:26.334Z,7.77
2018-04-30T04:54:54.092Z,8.07
2018-04-30T04:57:21.698Z,9.57
2018-04-30T04:59:49.243Z,8.50
2018-04-30T05:02:17.885Z,8.33
2018-04-30T05:04:46.238Z,7.03
2018-04-30T05:07:13.786Z,13.93
2018-04-30T05:09:41.391Z,8.07
2018-04-30T05:12:10.038Z,9.83
2018-04-30T05:14:37.653Z,10.60
2018-04-30T05:17:05.303Z,10.55
2018-04-30T05:19:33.441Z,8.73
2018-04-30T05:22:01.650Z,8.73
2018-04-30T05:24:29.274Z,12.27
2018-04-30T05:26:57.818Z,7.70
2018-04-30T05:29:25.412Z,7.00
2018-04-30T05:31:53.094Z,7.17
2018-04-30T05:34:21.303Z,8.48
2018-04-30T05:36:49.934Z,7.77
2018-04-30T05:39:18.637Z,8.57
2018-04-30T05:41:46.626Z,6.57
2018-04-30T05:44:15.155Z,7.37
2018-04-30T05:46:42.762Z,11.77
2018-04-30T05:49:10.353Z,6.93
2018-04-30T05:51:38.038Z,6.70
2018-04-30T05:54:05.578Z,7.13
2018-04-30T05:56:33.194Z,6.10
2018-04-30T05:59:00.821Z,6.83
2018-04-30T06:01:28.382Z,5.60
2018-04-30T06:03:55.984Z,7.53
2018-04-30T06:06:23.619Z,7.10
2018-04-30T06:08:51.238Z,5.97
2018-04-30T06:11:18.794Z,5.87
2018-04-30T06:13:46.402Z,5.90
2018-04-30T06:16:13.960Z,5.40
2018-04-30T06:18:41.748Z,6.60
2018-04-30T06:21:10.292Z,5.13
2018-04-30T06:23:37.875Z,6.13
2018-04-30T06:26:05.480Z,4.73
2018-04-30T06:28:34.008Z,4.30
2018-04-30T06:31:01.607Z,4.87
2018-04-30T06:33:29.221Z,4.83
2018-04-30T06:35:56.846Z,5.30
2018-04-30T06:38:24.461Z,4.03
2018-04-30T06:40:52.069Z,3.77
2018-04-30T06:43:19.671Z,15.47
2018-04-30T06:45:48.119Z,3.57
2018-04-30T06:48:15.733Z,3.60
2018-04-30T06:50:43.287Z,3.90
2018-04-30T06:53:11.670Z,3.17
2018-04-30T06:55:39.218Z,3.17
2018-04-30T06:58:06.836Z,3.10
2018-04-30T07:00:34.450Z,3.10
2018-04-30T07:03:01.997Z,3.33
2018-04-30T07:05:29.664Z,3.63
2018-04-30T07:07:57.270Z,3.23
2018-04-30T07:10:24.861Z,3.10
2018-04-30T07:12:52.406Z,3.40
2018-04-30T07:15:19.990Z,5.67
2018-04-30T07:17:47.538Z,3.33
2018-04-30T07:20:15.138Z,2.80
2018-04-30T07:22:42.706Z,3.17
2018-04-30T07:25:11.057Z,5.63
2018-04-30T07:27:38.745Z,4.70
2018-04-30T07:30:06.252Z,3.70
2018-04-30T07:32:33.806Z,3.70
2018-04-30T07:35:01.405Z,3.53
2018-04-30T07:37:29.039Z,2.65
2018-04-30T07:39:56.578Z,2.55
2018-04-30T07:42:24.140Z,2.58
2018-04-30T07:44:51.713Z,2.28
2018-04-30T07:47:19.286Z,3.03
2018-04-30T07:49:47.696Z,2.90
2018-04-30T07:52:15.250Z,2.65
2018-04-30T07:54:42.840Z,2.90
2018-04-30T07:57:10.470Z,2.75
2018-04-30T07:59:38.098Z,2.92
2018-04-30T08:02:05.650Z,3.10
2018-04-30T08:04:33.333Z,2.92
2018-04-30T08:07:00.942Z,4.00
2018-04-30T08:09:28.499Z,3.22
2018-04-30T08:11:56.163Z,3.12
2018-04-30T08:14:24.692Z,3.95
2018-04-30T08:16:53.107Z,3.67
2018-04-30T08:19:21.739Z,2.75
2018-04-30T08:21:49.285Z,3.60
2018-04-30T08:24:17.729Z,3.10
2018-04-30T08:26:45.404Z,3.50
2018-04-30T08:29:13.011Z,4.15
2018-04-30T08:31:42.529Z,4.10
2018-04-30T08:34:10.187Z,3.40
2018-04-30T08:36:37.878Z,3.85
2018-04-30T08:39:05.414Z,3.72
2018-04-30T08:41:33.115Z,3.47
2018-04-30T08:44:00.674Z,3.62
2018-04-30T08:46:28.234Z,3.55
2018-04-30T08:48:55.878Z,3.47
2018-04-30T08:51:23.465Z,4.45
2018-04-30T08:53:51.010Z,3.22
2018-04-30T08:56:18.618Z,3.08
2018-04-30T08:58:46.227Z,3.20
2018-04-30T09:01:14.175Z,2.78
2018-04-30T09:03:41.805Z,3.10
2018-04-30T09:06:09.415Z,2.70
2018-04-30T09:08:37.007Z,2.40
2018-04-30T09:11:04.615Z,3.83
2018-04-30T09:13:32.959Z,2.87
2018-04-30T09:16:00.502Z,2.97
2018-04-30T09:18:28.073Z,3.95
2018-04-30T09:20:56.469Z,3.87
2018-04-30T09:23:24.010Z,5.70
2018-04-30T09:25:51.664Z,5.65
2018-04-30T09:28:19.222Z,4.22
2018-04-30T09:30:46.773Z,4.72
2018-04-30T09:33:14.448Z,6.55
2018-04-30T09:35:42.810Z,4.12
2018-04-30T09:38:10.423Z,4.20
2018-04-30T09:40:39.921Z,3.47
2018-04-30T09:43:07.540Z,4.28
2018-04-30T09:45:35.180Z,3.87
2018-04-30T09:48:02.799Z,5.00
2018-04-30T09:50:30.415Z,5.00
2018-04-30T09:52:58.006Z,5.37
2018-04-30T09:55:25.552Z,5.00
2018-04-30T09:57:53.223Z,4.97
2018-04-30T10:00:20.861Z,5.03
2018-04-30T10:02:48.508Z,5.18
2018-04-30T10:05:16.214Z,5.85
2018-04-30T10:07:43.778Z,5.72
2018-04-30T10:10:11.406Z,5.35
2018-04-30T10:12:39.889Z,5.00
2018-04-30T10:15:07.458Z,5.15
2018-04-30T10:17:35.083Z,5.43
2018-04-30T10:20:02.828Z,5.00
2018-04-30T10:22:30.385Z,5.07
2018-04-30T10:24:57.939Z,4.12
2018-04-30T10:27:25.545Z,4.35
2018-04-30T10:29:54.000Z,3.95
2018-04-30T10:32:21.739Z,4.40
2018-04-30T10:34:49.367Z,4.32
2018-04-30T10:37:17.064Z,4.28
2018-04-30T10:39:45.490Z,3.78
2018-04-30T10:42:13.183Z,4.12
2018-04-30T10:44:40.811Z,3.55
2018-04-30T10:47:08.419Z,3.33
2018-04-30T10:49:36.872Z,4.03
2018-04-30T10:52:04.488Z,3.72
2018-04-30T10:54:32.807Z,3.47
2018-04-30T10:57:00.458Z,3.50
2018-04-30T10:59:29.045Z,3.62
2018-04-30T11:01:56.593Z,4.60
2018-04-30T11:04:24.165Z,10.32
2018-04-30T11:06:52.669Z,5.37
2018-04-30T11:09:20.273Z,15.15
2018-04-30T11:11:47.830Z,4.87
2018-04-30T11:14:15.475Z,3.90
2018-04-30T11:16:43.049Z,3.10
2018-04-30T11:19:10.665Z,4.10
2018-04-30T11:21:38.212Z,3.62
2018-04-30T11:24:05.764Z,3.80
2018-04-30T11:26:34.174Z,3.97
2018-04-30T11:29:02.806Z,4.40
2018-04-30T11:31:30.463Z,4.05
2018-04-30T11:33:58.014Z,4.80
2018-04-30T11:36:25.662Z,4.93
2018-04-30T11:38:53.302Z,5.03
2018-04-30T11:41:20.886Z,3.97
2018-04-30T11:43:48.591Z,5.22
2018-04-30T11:46:16.244Z,3.45
2018-04-30T11:48:43.903Z,3.45
2018-04-30T11:51:11.530Z,4.32
2018-04-30T11:53:39.111Z,3.87
2018-04-30T11:56:06.802Z,4.25
2018-04-30T11:58:35.234Z,3.45
2018-04-30T12:01:02.811Z,3.50
2018-04-30T12:03:31.351Z,2.80
2018-04-30T12:05:58.918Z,3.37
2018-04-30T12:08:26.558Z,3.70
2018-04-30T12:10:54.232Z,2.80
2018-04-30T12:13:21.764Z,3.53
2018-04-30T12:15:49.385Z,3.55
2018-04-30T12:18:17.031Z,3.78
2018-04-30T12:20:44.651Z,3.30
2018-04-30T12:23:13.228Z,3.28
2018-04-30T12:25:40.868Z,4.30
2018-04-30T12:28:08.422Z,3.80
2018-04-30T12:30:35.986Z,4.10
2018-04-30T12:33:03.679Z,4.60
2018-04-30T12:35:32.252Z,4.05
2018-04-30T12:38:00.758Z,3.97
2018-04-30T12:40:28.387Z,3.75
2018-04-30T12:42:56.037Z,3.75
2018-04-30T12:45:23.617Z,4.15
2018-04-30T12:47:51.271Z,4.47
2018-04-30T12:50:18.855Z,4.45
2018-04-30T12:52:46.531Z,4.10
2018-04-30T12:55:14.179Z,5.55
2018-04-30T12:57:41.763Z,6.87
2018-04-30T13:00:09.325Z,7.32
2018-04-30T13:02:36.957Z,5.22
2018-04-30T13:05:05.619Z,5.22
2018-04-30T13:07:33.194Z,6.80
2018-04-30T13:10:00.876Z,6.37
2018-04-30T13:12:28.442Z,4.85
2018-04-30T13:14:56.046Z,6.00
2018-04-30T13:17:24.403Z,4.68
2018-04-30T13:19:52.009Z,5.75
2018-04-30T13:22:19.786Z,6.35
2018-04-30T13:24:47.719Z,6.10
2018-04-30T13:27:15.458Z,4.93
2018-04-30T13:29:43.059Z,6.30
2018-04-30T13:32:10.607Z,8.80
2018-04-30T13:34:38.729Z,7.85
2018-04-30T13:37:06.432Z,5.65
2018-04-30T13:39:33.986Z,13.98
2018-04-30T13:42:02.471Z,5.80
2018-04-30T13:44:30.682Z,5.15
2018-04-30T13:46:59.271Z,8.45
2018-04-30T13:49:26.975Z,9.90
2018-04-30T13:51:54.772Z,10.05
2018-04-30T13:54:22.415Z,11.50
2018-04-30T13:56:50.923Z,13.70
2018-04-30T13:59:19.422Z,17.75
2018-04-30T14:01:47.138Z,10.65
2018-04-30T14:04:14.947Z,8.57
2018-04-30T14:06:42.490Z,9.68
2018-04-30T14:09:10.104Z,8.95
2018-04-30T14:11:37.646Z,8.45
2018-04-30T14:14:05.814Z,9.20
2018-04-30T14:16:33.490Z,7.78
2018-04-30T14:19:01.106Z,6.85
2018-04-30T14:21:28.705Z,5.57
2018-04-30T14:23:56.403Z,6.65
2018-04-30T14:26:24.009Z,8.05
2018-04-30T14:28:52.542Z,7.75
2018-04-30T14:31:20.146Z,7.67
2018-04-30T14:33:47.695Z,8.13
2018-04-30T14:36:15.346Z,6.90
2018-04-30T14:38:43.811Z,9.40
2018-04-30T14:41:11.462Z,9.02
2018-04-30T14:43:39.890Z,9.32
2018-04-30T14:46:07.438Z,9.93
2018-04-30T14:48:35.026Z,8.68
2018-04-30T14:51:02.570Z,7.13
2018-04-30T14:53:30.276Z,7.13
2018-04-30T14:55:57.826Z,6.00
2018-04-30T14:58:26.218Z,8.47
2018-04-30T15:00:53.830Z,7.18
2018-04-30T15:03:21.447Z,10.80
2018-04-30T15:05:49.085Z,7.43
2018-04-30T15:08:16.677Z,6.65
2018-04-30T15:10:44.225Z,8.88
2018-04-30T15:13:11.830Z,6.32
2018-04-30T15:15:39.466Z,8.07
2018-04-30T15:18:07.078Z,5.40
2018-04-30T15:20:34.691Z,5.57
2018-04-30T15:23:03.159Z,5.40
2018-04-30T15:25:30.782Z,5.87
2018-04-30T15:27:58.345Z,5.77
2018-04-30T15:30:26.336Z,5.97
2018-04-30T15:32:54.892Z,6.37
2018-04-30T15:35:23.525Z,6.47
2018-04-30T15:37:51.166Z,5.57
2018-04-30T15:40:18.779Z,6.20
2018-04-30T15:42:47.266Z,6.63
2018-04-30T15:45:15.916Z,7.23
2018-04-30T15:47:43.648Z,7.37
2018-04-30T15:50:11.231Z,7.10
2018-04-30T15:52:39.793Z,8.07
2018-04-30T15:55:07.404Z,6.30
2018-04-30T15:57:35.873Z,8.47
2018-04-30T16:00:04.075Z,77.20
2018-04-30T16:02:31.627Z,95.33
2018-04-30T16:04:59.226Z,165.37
2018-04-30T16:07:27.691Z,167.43
2018-04-30T16:09:56.254Z,110.77
2018-04-30T16:12:23.871Z,62.23
2018-04-30T16:14:52.430Z,51.07
2018-04-30T16:17:19.983Z,45.60
2018-04-30T16:19:47.590Z,27.57
2018-04-30T16:22:15.251Z,21.33
2018-04-30T16:24:42.803Z,15.80
2018-04-30T16:27:10.427Z,13.73
2018-04-30T16:29:37.980Z,12.00
2018-04-30T16:32:06.428Z,9.23
2018-04-30T16:34:33.969Z,8.93
2018-04-30T16:37:01.584Z,10.43
2018-04-30T16:39:29.150Z,9.23
2018-04-30T16:41:57.770Z,8.77
2018-04-30T16:44:25.414Z,8.60
2018-04-30T16:46:55.166Z,8.70
2018-04-30T16:49:22.714Z,8.80
2018-04-30T16:51:51.945Z,8.30
2018-04-30T16:54:20.270Z,8.07
2018-04-30T16:56:47.861Z,8.13
2018-04-30T16:59:15.578Z,10.57
2018-04-30T17:01:43.135Z,8.40
2018-04-30T17:04:11.204Z,8.53
2018-04-30T17:06:40.641Z,9.63
2018-04-30T17:09:10.237Z,9.37
2018-04-30T17:11:38.223Z,9.50
2018-04-30T17:14:05.777Z,9.00
2018-04-30T17:16:33.422Z,10.87
2018-04-30T17:19:00.966Z,9.50
2018-04-30T17:21:28.511Z,8.97
2018-04-30T17:23:56.125Z,8.90
2018-04-30T17:26:23.670Z,8.97
2018-04-30T17:28:51.275Z,7.70
2018-04-30T17:31:20.571Z,8.50
2018-04-30T17:33:48.230Z,8.30
2018-04-30T17:36:15.794Z,8.47
2018-04-30T17:38:44.362Z,8.93
2018-04-30T17:41:12.114Z,9.70
2018-04-30T17:43:39.735Z,8.90
2018-04-30T17:46:09.202Z,9.37
2018-04-30T17:48:36.875Z,10.20
2018-04-30T17:51:05.332Z,9.70
2018-04-30T17:53:33.866Z,10.73
2018-04-30T17:56:02.049Z,12.80
2018-04-30T17:58:29.726Z,10.93
2018-04-30T18:00:57.568Z,13.23
2018-04-30T18:03:25.530Z,13.93
2018-04-30T18:05:53.178Z,14.83
2018-04-30T18:08:22.257Z,13.27
2018-04-30T18:10:52.242Z,13.37
2018-04-30T18:13:20.410Z,12.30
2018-04-30T18:15:48.494Z,14.77
2018-04-30T18:18:16.337Z,10.57
2018-04-30T18:20:44.747Z,12.23
2018-04-30T18:23:12.475Z,9.80
2018-04-30T18:25:41.930Z,9.07
2018-04-30T18:28:10.244Z,9.30
2018-04-30T18:30:39.055Z,8.80
2018-04-30T18:33:08.466Z,9.03
2018-04-30T18:35:36.070Z,8.50
2018-04-30T18:38:03.681Z,9.07
2018-04-30T18:40:32.358Z,8.07
2018-04-30T18:42:59.968Z,8.73
2018-04-30T18:45:29.394Z,8.03
2018-04-30T18:47:57.846Z,8.00
2018-04-30T18:50:25.482Z,9.20
2018-04-30T18:52:53.091Z,9.53
2018-04-30T18:55:20.637Z,9.40
2018-04-30T18:57:48.257Z,9.10
2018-04-30T19:00:15.806Z,9.40
2018-04-30T19:02:43.350Z,9.47
2018-04-30T19:05:12.931Z,8.77
2018-04-30T19:07:40.531Z,9.10
2018-04-30T19:10:08.178Z,9.47
2018-04-30T19:12:35.786Z,8.97
2018-04-30T19:15:03.409Z,9.90
2018-04-30T19:17:30.998Z,9.87
2018-04-30T19:19:59.366Z,10.00
2018-04-30T19:22:27.930Z,10.37
2018-04-30T19:24:55.986Z,10.20
2018-04-30T19:27:23.534Z,9.00
2018-04-30T19:29:51.146Z,9.27
2018-04-30T19:32:18.786Z,8.50
2018-04-30T19:34:47.287Z,9.37
2018-04-30T19:37:14.903Z,9.03
2018-04-30T19:39:42.567Z,8.50
2018-04-30T19:42:10.244Z,10.73
2018-04-30T19:44:37.959Z,9.63
2018-04-30T19:47:05.559Z,9.87
2018-04-30T19:49:33.230Z,9.20
2018-04-30T19:52:00.981Z,9.70
2018-04-30T19:54:28.530Z,9.90
2018-04-30T19:56:56.108Z,8.23
2018-04-30T19:59:24.556Z,8.83
2018-04-30T20:01:54.612Z,8.60
2018-04-30T20:04:23.123Z,9.03
2018-04-30T20:06:52.187Z,8.80
2018-04-30T20:09:20.085Z,10.27
2018-04-30T20:11:47.637Z,10.13
2018-04-30T20:14:17.819Z,11.57
2018-04-30T20:16:46.993Z,10.20
2018-04-30T20:19:14.607Z,9.80
2018-04-30T20:21:42.194Z,11.07
2018-04-30T20:24:09.859Z,11.57
2018-04-30T20:26:37.535Z,10.33
2018-04-30T20:29:05.187Z,10.97
2018-04-30T20:31:32.790Z,11.63
2018-04-30T20:34:00.885Z,11.30
2018-04-30T20:36:28.454Z,12.13
2018-04-30T20:38:56.254Z,10.93
2018-04-30T20:41:24.050Z,10.93
2018-04-30T20:43:51.671Z,11.23
2018-04-30T20:46:19.272Z,12.53
2018-04-30T20:48:47.014Z,17.90
2018-04-30T20:51:15.109Z,21.73
2018-04-30T20:53:42.667Z,16.50
2018-04-30T20:56:11.257Z,14.90
2018-04-30T20:58:38.807Z,15.13
2018-04-30T21:01:06.414Z,18.07
2018-04-30T21:03:34.027Z,19.87
2018-04-30T21:06:01.719Z,15.07
2018-04-30T21:08:29.362Z,13.67
2018-04-30T21:10:57.328Z,14.17
2018-04-30T21:13:25.558Z,13.63
2018-04-30T21:15:53.170Z,14.03
2018-04-30T21:18:21.150Z,13.37
2018-04-30T21:20:48.826Z,13.70
2018-04-30T21:23:18.035Z,15.43
2018-04-30T21:25:45.662Z,16.80
2018-04-30T21:28:13.363Z,17.77
2018-04-30T21:30:41.314Z,15.17
2018-04-30T21:33:08.926Z,13.00
2018-04-30T21:35:36.575Z,12.93
2018-04-30T21:38:04.405Z,13.50
2018-04-30T21:40:32.890Z,13.70
2018-04-30T21:43:00.450Z,14.20
2018-04-30T21:45:29.191Z,15.23
2018-04-30T21:47:56.849Z,14.73
2018-04-30T21:50:24.442Z,15.57
2018-04-30T21:52:52.898Z,12.87
2018-04-30T21:55:20.448Z,12.17
2018-04-30T21:57:48.092Z,13.67
2018-04-30T22:00:15.723Z,12.07
2018-04-30T22:02:43.294Z,12.37
2018-04-30T22:05:10.895Z,12.87
2018-04-30T22:07:38.454Z,13.23
2018-04-30T22:10:06.045Z,13.50
2018-04-30T22:12:33.598Z,14.77
2018-04-30T22:15:01.190Z,14.87
2018-04-30T22:17:28.755Z,14.73
2018-04-30T22:19:56.314Z,15.03
2018-04-30T22:22:23.874Z,16.37
2018-04-30T22:24:51.493Z,16.10
2018-04-30T22:27:19.107Z,16.17
2018-04-30T22:29:46.657Z,15.97
2018-04-30T22:32:15.193Z,16.07
2018-04-30T22:34:42.806Z,16.57
2018-04-30T22:37:10.450Z,15.63
2018-04-30T22:39:37.993Z,14.77
2018-04-30T22:42:05.598Z,15.70
2018-04-30T22:44:33.274Z,19.43
2018-04-30T22:47:00.886Z,17.53
2018-04-30T22:49:28.437Z,18.10
2018-04-30T22:51:56.050Z,18.20
2018-04-30T22:54:23.601Z,20.83
2018-04-30T22:56:51.222Z,19.10
2018-04-30T22:59:18.830Z,17.30
2018-04-30T23:01:46.373Z,17.77
2018-04-30T23:04:14.195Z,16.90
2018-04-30T23:06:41.807Z,16.90
2018-04-30T23:09:09.359Z,16.43
2018-04-30T23:11:36.966Z,17.20
2018-04-30T23:14:04.510Z,17.30
2018-04-30T23:16:32.127Z,18.50
2018-04-30T23:18:59.738Z,22.20
2018-04-30T23:21:27.346Z,17.23
2018-04-30T23:23:54.995Z,16.70
2018-04-30T23:26:22.658Z,16.17
2018-04-30T23:28:50.209Z,18.53
2018-04-30T23:31:19.450Z,18.40
2018-04-30T23:33:47.042Z,19.57
2018-04-30T23:36:14.585Z,18.30
2018-04-30T23:38:42.176Z,19.13
2018-04-30T23:41:10.622Z,19.17
2018-04-30T23:43:38.255Z,21.60
2018-04-30T23:46:05.810Z,19.90
2018-04-30T23:48:33.366Z,19.43
2018-04-30T23:51:00.969Z,20.97
2018-04-30T23:53:28.562Z,19.67
2018-04-30T23:55:56.614Z,18.43
2018-04-30T23:58:24.229Z,20.67
